createdAt,value
2022-10-25T00:02:18.475Z,20.80
2022-10-25T00:04:48.482Z,20.80
2022-10-25T00:07:17.038Z,20.80
2022-10-25T00:09:45.044Z,20.80
2022-10-25T00:12:13.047Z,20.80
2022-10-25T00:14:41.083Z,20.80
2022-10-25T00:17:09.312Z,20.80
2022-10-25T00:19:37.474Z,20.80
2022-10-25T00:22:06.827Z,20.80
2022-10-25T00:24:34.804Z,20.80
2022-10-25T00:27:02.822Z,20.80
2022-10-25T00:29:32.099Z,20.80
2022-10-25T00:32:00.236Z,20.80
2022-10-25T00:34:28.244Z,20.80
2022-10-25T00:36:56.276Z,20.80
2022-10-25T00:39:25.641Z,20.70
2022-10-25T00:41:53.640Z,20.70
2022-10-25T00:44:55.501Z,20.70
2022-10-25T00:47:44.291Z,20.60
2022-10-25T00:50:26.223Z,20.70
2022-10-25T00:53:03.848Z,20.70
2022-10-25T00:55:34.493Z,20.70
2022-10-25T00:58:09.347Z,20.70
2022-10-25T01:00:37.895Z,20.70
2022-10-25T01:03:07.814Z,20.70
2022-10-25T01:05:36.964Z,20.70
2022-10-25T01:08:06.915Z,20.70
2022-10-25T01:10:36.419Z,20.70
2022-10-25T01:13:05.309Z,20.70
2022-10-25T01:15:47.845Z,20.60
2022-10-25T01:18:23.744Z,20.60
2022-10-25T01:21:45.982Z,20.60
2022-10-25T01:24:58.946Z,20.60
2022-10-25T01:28:04.415Z,20.50
2022-10-25T01:31:09.131Z,20.50
2022-10-25T01:33:44.951Z,20.50
2022-10-25T01:36:22.922Z,20.60
2022-10-25T01:39:01.303Z,20.50
2022-10-25T01:41:40.888Z,20.50
2022-10-25T01:44:30.024Z,20.50
2022-10-25T01:47:04.871Z,20.40
2022-10-25T01:49:43.958Z,20.50
2022-10-25T01:52:12.010Z,20.60
2022-10-25T01:54:40.546Z,20.60
2022-10-25T01:57:28.618Z,20.50
2022-10-25T02:00:11.299Z,20.40
2022-10-25T02:03:11.596Z,20.50
2022-10-25T02:06:00.620Z,20.50
2022-10-25T02:08:37.998Z,20.50
2022-10-25T02:11:18.135Z,20.50
2022-10-25T02:14:00.289Z,20.50
2022-10-25T02:16:33.361Z,20.50
2022-10-25T02:19:06.650Z,20.50
2022-10-25T02:21:37.750Z,20.50
2022-10-25T02:24:12.167Z,20.50
2022-10-25T02:26:43.339Z,20.50
2022-10-25T02:29:13.918Z,20.50
2022-10-25T02:31:42.565Z,20.50
2022-10-25T02:34:12.338Z,20.40
2022-10-25T02:36:40.319Z,20.50
2022-10-25T02:39:09.377Z,20.50
2022-10-25T02:41:37.387Z,20.50
2022-10-25T02:44:05.665Z,20.50
2022-10-25T02:46:33.681Z,20.50
2022-10-25T02:49:01.686Z,20.40
2022-10-25T02:51:31.187Z,20.40
2022-10-25T02:53:59.290Z,20.50
2022-10-25T02:56:27.312Z,20.40
2022-10-25T02:58:58.698Z,20.40
2022-10-25T03:01:27.270Z,20.40
2022-10-25T03:03:55.344Z,20.40
2022-10-25T03:06:23.585Z,20.40
2022-10-25T03:08:52.925Z,20.40
2022-10-25T03:11:21.253Z,20.40
2022-10-25T03:13:49.293Z,20.40
2022-10-25T03:16:17.242Z,20.40
2022-10-25T03:18:45.267Z,20.40
2022-10-25T03:21:13.345Z,20.40
2022-10-25T03:23:41.332Z,20.40
2022-10-25T03:26:10.671Z,20.40
2022-10-25T03:28:38.658Z,20.40
2022-10-25T03:31:12.743Z,20.30
2022-10-25T03:33:41.501Z,20.40
2022-10-25T03:36:09.810Z,20.30
2022-10-25T03:38:37.828Z,20.40
2022-10-25T03:41:06.605Z,20.30
2022-10-25T03:43:36.037Z,20.30
2022-10-25T03:46:04.184Z,20.30
2022-10-25T03:48:32.223Z,20.30
2022-10-25T03:51:00.271Z,20.30
2022-10-25T03:53:28.367Z,20.30
2022-10-25T03:55:56.369Z,20.30
2022-10-25T03:58:24.362Z,20.30
2022-10-25T04:00:53.837Z,20.30
2022-10-25T04:03:21.875Z,20.30
2022-10-25T04:05:49.888Z,20.30
2022-10-25T04:08:17.929Z,20.30
2022-10-25T04:10:45.920Z,20.30
2022-10-25T04:13:13.923Z,20.30
2022-10-25T04:15:41.915Z,20.30
2022-10-25T04:18:11.279Z,20.30
2022-10-25T04:20:39.355Z,20.30
2022-10-25T04:23:07.381Z,20.30
2022-10-25T04:25:35.491Z,20.20
2022-10-25T04:28:04.520Z,20.20
2022-10-25T04:30:36.483Z,20.20
2022-10-25T04:33:06.760Z,20.20
2022-10-25T04:35:36.126Z,20.20
2022-10-25T04:38:04.153Z,20.20
2022-10-25T04:40:32.167Z,20.20
2022-10-25T04:43:02.224Z,20.20
2022-10-25T04:45:30.759Z,20.20
2022-10-25T04:48:01.585Z,20.20
2022-10-25T04:50:29.628Z,20.20
2022-10-25T04:52:58.958Z,20.20
2022-10-25T04:55:26.973Z,20.20
2022-10-25T04:57:54.984Z,20.10
2022-10-25T05:00:23.216Z,20.10
2022-10-25T05:02:53.271Z,20.10
2022-10-25T05:05:23.168Z,20.10
2022-10-25T05:07:51.433Z,20.10
2022-10-25T05:10:21.008Z,20.10
2022-10-25T05:12:49.251Z,20.10
2022-10-25T05:15:17.578Z,20.10
2022-10-25T05:17:45.589Z,20.10
2022-10-25T05:20:13.602Z,20.10
2022-10-25T05:22:41.721Z,20.10
2022-10-25T05:25:10.539Z,20.10
2022-10-25T05:27:40.460Z,20.10
2022-10-25T05:30:10.282Z,20.10
2022-10-25T05:32:38.708Z,20.10
2022-10-25T05:35:07.388Z,20.10
2022-10-25T05:37:35.417Z,20.00
2022-10-25T05:40:03.455Z,20.00
2022-10-25T05:42:31.454Z,20.00
2022-10-25T05:45:00.795Z,20.00
2022-10-25T05:47:28.789Z,20.00
2022-10-25T05:49:56.828Z,20.00
2022-10-25T05:52:24.813Z,20.00
2022-10-25T05:54:52.797Z,20.00
2022-10-25T05:57:21.418Z,20.00
2022-10-25T05:59:49.417Z,20.00
2022-10-25T06:02:18.989Z,20.00
2022-10-25T06:04:51.606Z,20.00
2022-10-25T06:07:20.801Z,20.00
2022-10-25T06:09:48.815Z,20.00
2022-10-25T06:12:16.839Z,20.00
2022-10-25T06:14:44.860Z,20.00
2022-10-25T06:17:13.898Z,20.00
2022-10-25T06:19:43.257Z,19.90
2022-10-25T06:22:11.446Z,20.00
2022-10-25T06:24:39.760Z,20.00
2022-10-25T06:27:07.798Z,20.00
2022-10-25T06:29:35.800Z,20.00
2022-10-25T06:32:03.812Z,20.00
2022-10-25T06:34:31.840Z,20.00
2022-10-25T06:37:01.202Z,20.00
2022-10-25T06:39:29.195Z,20.00
2022-10-25T06:41:57.182Z,20.00
2022-10-25T06:44:25.297Z,19.90
2022-10-25T06:47:15.930Z,20.00
2022-10-25T06:49:41.466Z,20.00
2022-10-25T06:52:10.818Z,20.00
2022-10-25T06:54:38.851Z,20.00
2022-10-25T06:57:06.861Z,20.00
2022-10-25T06:59:34.945Z,20.00
2022-10-25T07:02:03.169Z,20.00
2022-10-25T07:04:32.467Z,20.00
2022-10-25T07:07:00.549Z,20.00
2022-10-25T07:09:30.385Z,20.00
2022-10-25T07:11:58.410Z,20.00
2022-10-25T07:14:26.389Z,19.90
2022-10-25T07:16:54.421Z,20.10
2022-10-25T07:19:23.874Z,20.10
2022-10-25T07:21:52.261Z,20.10
2022-10-25T07:24:20.272Z,20.10
2022-10-25T07:26:49.615Z,20.10
2022-10-25T07:29:17.667Z,20.10
2022-10-25T07:31:45.829Z,20.10
2022-10-25T07:34:16.046Z,20.10
2022-10-25T07:36:44.241Z,20.10
2022-10-25T07:39:12.229Z,20.10
2022-10-25T07:41:40.299Z,20.20
2022-10-25T07:44:15.465Z,20.20
2022-10-25T07:46:44.357Z,20.20
2022-10-25T07:49:12.455Z,20.20
2022-10-25T07:51:40.641Z,20.20
2022-10-25T07:54:08.980Z,20.20
2022-10-25T07:56:36.977Z,20.20
2022-10-25T07:59:05.005Z,20.20
2022-10-25T08:01:34.450Z,20.20
2022-10-25T08:04:02.544Z,20.20
2022-10-25T08:06:30.546Z,20.30
2022-10-25T08:09:05.451Z,20.30
2022-10-25T08:11:43.274Z,20.30
2022-10-25T08:14:11.394Z,20.30
2022-10-25T08:16:40.743Z,20.20
2022-10-25T08:19:08.851Z,20.30
2022-10-25T08:21:36.880Z,20.30
2022-10-25T08:24:05.543Z,20.30
2022-10-25T08:26:36.707Z,20.30
2022-10-25T08:29:05.544Z,20.30
2022-10-25T08:31:33.682Z,20.30
2022-10-25T08:34:03.166Z,20.30
2022-10-25T08:36:31.341Z,20.40
2022-10-25T08:38:59.379Z,20.40
2022-10-25T08:41:41.917Z,20.20
2022-10-25T08:44:25.324Z,20.40
2022-10-25T08:47:02.913Z,20.40
2022-10-25T08:49:50.803Z,20.30
2022-10-25T08:52:27.601Z,20.40
2022-10-25T08:55:03.157Z,20.40
2022-10-25T08:57:38.319Z,20.40
2022-10-25T09:00:17.286Z,20.40
2022-10-25T09:02:53.463Z,20.40
2022-10-25T09:05:38.271Z,20.40
2022-10-25T09:08:40.860Z,20.40
2022-10-25T09:11:23.207Z,20.40
2022-10-25T09:14:00.408Z,20.50
2022-10-25T09:16:39.638Z,20.50
2022-10-25T09:19:17.852Z,20.50
2022-10-25T09:21:54.192Z,20.50
2022-10-25T09:24:28.612Z,20.50
2022-10-25T09:27:07.095Z,20.50
2022-10-25T09:29:39.470Z,20.60
2022-10-25T09:32:18.208Z,20.60
2022-10-25T09:34:46.895Z,20.60
2022-10-25T09:37:23.263Z,20.60
2022-10-25T09:39:56.016Z,20.60
2022-10-25T09:42:31.531Z,20.70
2022-10-25T09:45:07.558Z,20.70
2022-10-25T09:47:44.868Z,20.70
2022-10-25T09:50:24.547Z,20.70
2022-10-25T09:53:06.385Z,20.70
2022-10-25T09:55:41.155Z,20.70
2022-10-25T09:58:19.058Z,20.70
2022-10-25T10:00:47.270Z,20.80
2022-10-25T10:03:16.041Z,20.80
2022-10-25T10:05:53.767Z,20.80
2022-10-25T10:08:23.379Z,20.80
2022-10-25T10:10:54.154Z,20.80
2022-10-25T10:13:33.832Z,20.80
2022-10-25T10:16:07.035Z,20.90
2022-10-25T10:18:35.958Z,20.90
2022-10-25T10:21:13.462Z,20.90
2022-10-25T10:23:53.203Z,20.90
2022-10-25T10:26:28.092Z,20.90
2022-10-25T10:29:15.434Z,20.90
2022-10-25T10:31:50.981Z,20.90
2022-10-25T10:34:28.098Z,20.90
2022-10-25T10:37:13.958Z,20.90
2022-10-25T10:39:52.882Z,20.90
2022-10-25T10:42:24.088Z,21.00
2022-10-25T10:45:17.595Z,21.00
2022-10-25T10:47:56.909Z,21.00
2022-10-25T10:50:31.882Z,21.00
2022-10-25T10:53:02.626Z,21.00
2022-10-25T10:55:35.361Z,20.90
2022-10-25T10:58:06.786Z,21.10
2022-10-25T11:00:36.299Z,21.10
2022-10-25T11:03:04.630Z,21.10
2022-10-25T11:05:35.932Z,21.10
2022-10-25T11:08:18.923Z,21.10
2022-10-25T11:10:48.418Z,21.20
2022-10-25T11:13:19.229Z,21.20
2022-10-25T11:16:38.083Z,21.10
2022-10-25T11:19:25.274Z,21.10
2022-10-25T11:22:18.336Z,21.10
2022-10-25T11:25:05.250Z,21.10
2022-10-25T11:27:54.247Z,21.10
2022-10-25T11:30:24.415Z,21.20
2022-10-25T11:33:21.556Z,21.10
2022-10-25T11:36:14.609Z,21.20
2022-10-25T11:39:02.666Z,21.20
2022-10-25T11:41:46.235Z,21.20
2022-10-25T11:44:49.597Z,21.20
2022-10-25T11:47:34.311Z,21.20
2022-10-25T11:50:23.730Z,21.20
2022-10-25T11:53:23.041Z,21.20
2022-10-25T11:55:58.546Z,21.20
2022-10-25T11:58:46.092Z,21.20
2022-10-25T12:01:49.237Z,21.20
2022-10-25T12:04:40.870Z,21.20
2022-10-25T12:07:19.973Z,21.20
2022-10-25T12:10:03.184Z,21.30
2022-10-25T12:12:43.981Z,21.30
2022-10-25T12:15:22.205Z,21.30
2022-10-25T12:17:52.897Z,21.30
2022-10-25T12:20:26.945Z,21.30
2022-10-25T12:22:59.498Z,21.30
2022-10-25T12:25:32.431Z,21.40
2022-10-25T12:28:11.543Z,21.30
2022-10-25T12:30:43.524Z,21.40
2022-10-25T12:33:21.640Z,21.40
2022-10-25T12:35:55.172Z,21.40
2022-10-25T12:38:34.074Z,21.40
2022-10-25T12:41:09.706Z,21.40
2022-10-25T12:43:48.574Z,21.40
2022-10-25T12:46:59.640Z,21.40
2022-10-25T12:49:54.097Z,21.40
2022-10-25T12:52:34.028Z,21.40
2022-10-25T12:55:33.263Z,21.40
2022-10-25T12:58:33.641Z,21.40
2022-10-25T13:01:26.406Z,21.40
2022-10-25T13:04:23.421Z,21.40
2022-10-25T13:06:54.671Z,21.40
2022-10-25T13:09:27.100Z,21.50
2022-10-25T13:12:00.182Z,21.50
2022-10-25T13:14:32.619Z,21.50
2022-10-25T13:18:02.456Z,21.40
2022-10-25T13:20:53.159Z,21.40
2022-10-25T13:24:02.426Z,21.50
2022-10-25T13:27:15.718Z,21.50
2022-10-25T13:30:25.322Z,21.50
2022-10-25T13:33:36.109Z,21.50
2022-10-25T13:36:06.474Z,21.60
2022-10-25T13:38:39.953Z,21.60
2022-10-25T13:41:20.624Z,21.60
2022-10-25T13:44:00.700Z,21.60
2022-10-25T13:46:36.682Z,21.60
2022-10-25T13:49:28.264Z,21.60
2022-10-25T13:51:58.636Z,21.60
2022-10-25T13:54:41.415Z,21.60
2022-10-25T13:57:48.499Z,21.60
2022-10-25T14:00:40.836Z,21.60
2022-10-25T14:03:35.819Z,21.60
2022-10-25T14:06:24.832Z,21.60
2022-10-25T14:09:29.078Z,21.60
2022-10-25T14:12:15.612Z,21.60
2022-10-25T14:15:04.559Z,21.50
2022-10-25T14:17:37.763Z,21.60
2022-10-25T14:20:20.644Z,21.50
2022-10-25T14:22:54.427Z,21.60
2022-10-25T14:25:25.979Z,21.60
2022-10-25T14:28:07.969Z,21.60
2022-10-25T14:30:42.709Z,21.60
2022-10-25T14:33:25.667Z,21.60
2022-10-25T14:35:57.874Z,21.60
2022-10-25T14:38:28.462Z,21.60
2022-10-25T14:40:59.401Z,21.60
2022-10-25T14:43:33.715Z,21.60
2022-10-25T14:46:14.208Z,21.60
2022-10-25T14:48:45.205Z,21.60
2022-10-25T14:51:21.563Z,21.60
2022-10-25T14:53:54.888Z,21.60
2022-10-25T14:56:30.295Z,21.60
2022-10-25T14:58:59.815Z,21.60
2022-10-25T15:01:30.198Z,21.60
2022-10-25T15:04:01.962Z,21.60
2022-10-25T15:06:33.255Z,21.60
2022-10-25T15:09:40.790Z,21.60
2022-10-25T15:12:18.931Z,21.50
2022-10-25T15:14:48.280Z,21.60
2022-10-25T15:17:26.365Z,21.50
2022-10-25T15:20:27.202Z,21.50
2022-10-25T15:23:05.419Z,21.50
2022-10-25T15:25:39.240Z,21.50
2022-10-25T15:28:13.346Z,21.50
2022-10-25T15:30:58.625Z,21.50
2022-10-25T15:33:31.275Z,21.50
2022-10-25T15:36:02.127Z,21.50
2022-10-25T15:38:54.194Z,21.50
2022-10-25T15:41:21.695Z,21.50
2022-10-25T15:43:49.974Z,21.50
2022-10-25T15:46:29.794Z,21.40
2022-10-25T15:49:03.955Z,21.50
2022-10-25T15:51:34.708Z,21.50
2022-10-25T15:54:02.800Z,21.50
2022-10-25T15:56:31.066Z,21.40
2022-10-25T15:59:01.319Z,21.50
2022-10-25T16:01:29.629Z,21.40
2022-10-25T16:03:59.148Z,21.40
2022-10-25T16:06:28.449Z,21.40
2022-10-25T16:08:56.501Z,21.40
2022-10-25T16:11:25.033Z,21.40
2022-10-25T16:13:54.269Z,21.40
2022-10-25T16:16:42.300Z,21.20
2022-10-25T16:19:16.604Z,21.30
2022-10-25T16:21:45.611Z,21.30
2022-10-25T16:24:14.670Z,21.30
2022-10-25T16:26:45.766Z,21.30
2022-10-25T16:29:19.171Z,21.20
2022-10-25T16:31:47.443Z,21.20
2022-10-25T16:34:19.335Z,21.20
2022-10-25T16:36:49.296Z,21.20
2022-10-25T16:39:17.947Z,21.20
2022-10-25T16:41:48.227Z,21.20
2022-10-25T16:44:18.878Z,21.20
2022-10-25T16:46:47.286Z,21.20
2022-10-25T16:49:16.948Z,21.10
2022-10-25T16:51:45.176Z,21.10
2022-10-25T16:54:15.245Z,21.10
2022-10-25T16:56:43.606Z,21.10
2022-10-25T16:59:11.653Z,21.10
2022-10-25T17:01:43.709Z,21.10
2022-10-25T17:04:14.158Z,21.10
2022-10-25T17:06:44.102Z,21.00
2022-10-25T17:09:12.762Z,21.00
2022-10-25T17:11:41.027Z,21.00
2022-10-25T17:14:10.535Z,21.00
2022-10-25T17:16:41.888Z,21.00
2022-10-25T17:19:10.762Z,21.00
2022-10-25T17:21:40.168Z,21.00
2022-10-25T17:24:10.121Z,20.80
2022-10-25T17:26:39.199Z,20.90
2022-10-25T17:29:07.484Z,20.90
2022-10-25T17:31:36.250Z,20.90
2022-10-25T17:34:05.247Z,20.90
2022-10-25T17:36:33.501Z,20.90
2022-10-25T17:39:02.453Z,20.90
2022-10-25T17:41:32.628Z,20.90
2022-10-25T17:44:00.924Z,20.90
2022-10-25T17:46:32.418Z,20.80
2022-10-25T17:49:05.632Z,20.80
2022-10-25T17:51:35.668Z,20.80
2022-10-25T17:54:04.238Z,20.80
2022-10-25T17:56:33.873Z,20.80
2022-10-25T17:59:04.374Z,20.80
2022-10-25T18:01:35.348Z,20.80
2022-10-25T18:04:04.140Z,20.80
2022-10-25T18:06:32.330Z,20.80
2022-10-25T18:09:03.002Z,20.70
2022-10-25T18:11:32.849Z,20.70
2022-10-25T18:14:02.616Z,20.70
2022-10-25T18:16:32.532Z,20.70
2022-10-25T18:19:04.026Z,20.70
2022-10-25T18:21:34.388Z,20.70
2022-10-25T18:24:05.526Z,20.60
2022-10-25T18:26:36.405Z,20.60
2022-10-25T18:29:04.800Z,20.60
2022-10-25T18:31:33.087Z,20.60
2022-10-25T18:34:04.685Z,20.60
2022-10-25T18:36:33.748Z,20.60
2022-10-25T18:39:01.948Z,20.60
2022-10-25T18:41:34.859Z,20.50
2022-10-25T18:44:03.676Z,20.50
2022-10-25T18:46:32.642Z,20.50
2022-10-25T18:49:01.816Z,20.50
2022-10-25T18:51:31.965Z,20.50
2022-10-25T18:54:02.369Z,20.40
2022-10-25T18:56:32.333Z,20.50
2022-10-25T18:59:02.108Z,20.50
2022-10-25T19:01:32.683Z,20.40
2022-10-25T19:04:02.365Z,20.40
2022-10-25T19:06:31.185Z,20.40
2022-10-25T19:09:00.851Z,20.40
2022-10-25T19:11:28.996Z,20.40
2022-10-25T19:13:58.012Z,20.30
2022-10-25T19:16:27.539Z,20.40
2022-10-25T19:18:55.666Z,20.30
2022-10-25T19:21:23.939Z,20.30
2022-10-25T19:23:54.433Z,20.30
2022-10-25T19:26:23.703Z,20.30
2022-10-25T19:28:58.446Z,20.20
2022-10-25T19:31:29.613Z,20.20
2022-10-25T19:34:00.470Z,20.20
2022-10-25T19:36:30.487Z,20.20
2022-10-25T19:38:59.178Z,20.10
2022-10-25T19:41:27.916Z,20.20
2022-10-25T19:43:57.109Z,20.10
2022-10-25T19:46:27.054Z,20.10
2022-10-25T19:48:56.170Z,20.10
2022-10-25T19:51:24.571Z,20.10
2022-10-25T19:53:53.000Z,20.10
2022-10-25T19:56:23.426Z,20.10
2022-10-25T19:58:52.771Z,20.00
2022-10-25T20:01:24.180Z,20.00
2022-10-25T20:03:57.393Z,20.00
2022-10-25T20:06:28.799Z,20.00
2022-10-25T20:08:58.900Z,20.00
2022-10-25T20:11:28.543Z,19.90
2022-10-25T20:13:59.060Z,19.90
2022-10-25T20:16:28.683Z,19.80
2022-10-25T20:19:00.766Z,19.90
2022-10-25T20:21:33.788Z,19.80
2022-10-25T20:24:05.394Z,19.80
2022-10-25T20:26:36.318Z,19.80
2022-10-25T20:29:08.149Z,19.80
2022-10-25T20:31:36.546Z,19.80
2022-10-25T20:34:05.965Z,19.70
2022-10-25T20:36:34.008Z,19.70
2022-10-25T20:39:02.079Z,19.70
2022-10-25T20:41:31.793Z,19.70
2022-10-25T20:44:03.717Z,19.60
2022-10-25T20:46:35.072Z,19.60
2022-10-25T20:49:07.292Z,19.60
2022-10-25T20:51:36.360Z,19.60
2022-10-25T20:54:09.165Z,19.60
2022-10-25T20:56:39.193Z,19.60
2022-10-25T20:59:08.036Z,19.50
2022-10-25T21:01:36.319Z,19.50
2022-10-25T21:04:06.195Z,19.50
2022-10-25T21:06:34.294Z,19.50
2022-10-25T21:09:02.490Z,19.50
2022-10-25T21:11:30.530Z,19.50
2022-10-25T21:13:58.504Z,19.40
2022-10-25T21:16:26.519Z,19.40
2022-10-25T21:18:54.535Z,19.40
2022-10-25T21:21:23.885Z,19.40
2022-10-25T21:23:56.778Z,19.30
2022-10-25T21:26:25.310Z,19.30
2022-10-25T21:28:53.523Z,19.30
2022-10-25T21:31:21.718Z,19.30
2022-10-25T21:33:51.286Z,19.30
2022-10-25T21:36:22.819Z,19.30
2022-10-25T21:38:50.844Z,19.30
2022-10-25T21:41:26.544Z,19.20
2022-10-25T21:43:56.136Z,19.20
2022-10-25T21:46:27.094Z,19.20
2022-10-25T21:48:55.880Z,19.20
2022-10-25T21:51:25.797Z,19.20
2022-10-25T21:53:54.412Z,19.10
2022-10-25T21:56:30.032Z,19.10
2022-10-25T21:59:00.470Z,19.10
2022-10-25T22:01:30.947Z,19.10
2022-10-25T22:03:59.102Z,19.10
2022-10-25T22:06:28.918Z,19.00
2022-10-25T22:08:57.894Z,19.00
2022-10-25T22:11:28.832Z,19.00
2022-10-25T22:13:59.464Z,18.80
2022-10-25T22:16:29.408Z,19.00
2022-10-25T22:19:00.018Z,18.90
2022-10-25T22:21:32.633Z,18.90
2022-10-25T22:24:00.910Z,18.90
2022-10-25T22:26:29.365Z,18.90
2022-10-25T22:28:59.590Z,18.90
2022-10-25T22:31:29.751Z,18.90
2022-10-25T22:33:59.991Z,18.80
2022-10-25T22:36:32.353Z,18.80
2022-10-25T22:39:00.765Z,18.80
2022-10-25T22:41:30.886Z,18.80
2022-10-25T22:43:59.425Z,18.80
2022-10-25T22:46:30.954Z,18.70
2022-10-25T22:49:01.318Z,18.70
2022-10-25T22:51:30.763Z,18.70
2022-10-25T22:53:59.044Z,18.70
2022-10-25T22:56:29.612Z,18.70
2022-10-25T22:59:00.694Z,18.70
2022-10-25T23:01:31.061Z,18.60
2022-10-25T23:04:00.480Z,18.60
2022-10-25T23:06:32.713Z,18.60
2022-10-25T23:09:03.842Z,18.60
2022-10-25T23:11:33.820Z,18.60
2022-10-25T23:14:03.221Z,18.50
2022-10-25T23:16:31.337Z,18.50
2022-10-25T23:18:59.598Z,18.50
2022-10-25T23:21:30.947Z,18.50
2022-10-25T23:24:01.056Z,18.50
2022-10-25T23:26:31.772Z,18.40
2022-10-25T23:29:01.068Z,18.40
2022-10-25T23:31:30.290Z,18.40
2022-10-25T23:34:01.013Z,18.40
2022-10-25T23:36:37.414Z,18.40
2022-10-25T23:39:08.641Z,18.40
2022-10-25T23:41:37.597Z,18.40
2022-10-25T23:44:06.058Z,18.30
2022-10-25T23:46:34.058Z,18.30
2022-10-25T23:49:02.108Z,18.30
2022-10-25T23:51:31.487Z,18.30
2022-10-25T23:53:59.558Z,18.30
2022-10-25T23:56:27.701Z,18.30
2022-10-25T23:58:55.708Z,18.30
